createdAt,value
2022-08-20T00:01:34.009Z,19.71
2022-08-20T00:06:38.141Z,19.60
2022-08-20T00:11:42.299Z,19.33
2022-08-20T00:16:46.437Z,19.05
2022-08-20T00:21:50.605Z,18.72
2022-08-20T00:26:54.792Z,18.32
2022-08-20T00:31:58.919Z,18.00
2022-08-20T00:42:07.239Z,18.21
2022-08-20T00:47:11.392Z,18.18
2022-08-20T00:52:15.586Z,18.14
2022-08-20T00:57:19.730Z,18.12
2022-08-20T01:02:23.902Z,18.11
2022-08-20T01:07:28.065Z,18.14
2022-08-20T01:12:32.179Z,18.14
2022-08-20T01:17:36.442Z,18.12
2022-08-20T01:22:40.510Z,18.15
2022-08-20T01:27:44.665Z,18.22
2022-08-20T01:32:48.865Z,18.29
2022-08-20T01:37:53.015Z,18.46
2022-08-20T01:42:59.321Z,18.57
2022-08-20T01:48:01.310Z,18.67
2022-08-20T01:53:05.463Z,18.72
2022-08-20T01:58:09.659Z,18.77
2022-08-20T02:03:13.804Z,18.80
2022-08-20T02:08:17.957Z,18.83
2022-08-20T02:13:22.113Z,18.84
2022-08-20T02:18:26.272Z,18.84
2022-08-20T02:23:30.447Z,18.86
2022-08-20T02:28:34.567Z,18.88
2022-08-20T02:33:39.154Z,18.90
2022-08-20T02:38:42.887Z,18.89
2022-08-20T02:43:47.055Z,18.90
2022-08-20T02:48:51.212Z,18.92
2022-08-20T02:53:55.395Z,18.95
2022-08-20T02:58:59.545Z,18.93
2022-08-20T03:04:03.735Z,18.89
2022-08-20T03:09:07.852Z,18.86
2022-08-20T03:14:12.026Z,18.87
2022-08-20T03:19:16.188Z,18.87
2022-08-20T03:24:20.362Z,18.84
2022-08-20T03:29:24.506Z,18.82
2022-08-20T03:34:28.650Z,18.78
2022-08-20T03:39:32.848Z,18.73
2022-08-20T03:44:36.993Z,18.67
2022-08-20T03:49:41.153Z,18.64
2022-08-20T03:54:45.318Z,18.61
2022-08-20T03:59:49.801Z,18.57
2022-08-20T04:04:53.634Z,18.52
2022-08-20T04:09:57.778Z,18.47
2022-08-20T04:15:02.110Z,18.45
2022-08-20T04:20:06.111Z,18.46
2022-08-20T04:25:10.266Z,18.44
2022-08-20T04:30:14.388Z,18.39
2022-08-20T04:35:18.552Z,18.38
2022-08-20T04:40:22.756Z,18.39
2022-08-20T04:45:26.916Z,18.33
2022-08-20T04:50:29.162Z,18.38
2022-08-20T04:55:33.327Z,18.45
2022-08-20T05:00:37.514Z,18.50
2022-08-20T05:05:41.651Z,18.58
2022-08-20T05:10:45.819Z,18.65
2022-08-20T05:15:49.965Z,18.75
2022-08-20T05:20:54.098Z,18.78
2022-08-20T05:25:58.279Z,18.90
2022-08-20T05:31:02.445Z,18.89
2022-08-20T05:36:06.611Z,18.84
2022-08-20T05:41:10.767Z,18.91
2022-08-20T05:46:14.920Z,18.93
2022-08-20T05:51:19.073Z,18.93
2022-08-20T05:56:26.767Z,18.95
2022-08-20T06:01:27.487Z,18.93
2022-08-20T06:06:44.357Z,18.94
2022-08-20T06:11:37.387Z,18.92
2022-08-20T06:16:39.885Z,18.95
2022-08-20T06:21:44.010Z,18.92
2022-08-20T06:26:48.199Z,18.72
2022-08-20T06:31:52.371Z,18.80
2022-08-20T06:36:56.497Z,18.83
2022-08-20T06:42:00.664Z,18.88
2022-08-20T06:47:04.814Z,18.90
2022-08-20T06:52:09.001Z,18.95
2022-08-20T06:57:13.163Z,19.10
2022-08-20T07:02:17.318Z,19.19
2022-08-20T07:07:21.466Z,19.14
2022-08-20T07:12:25.628Z,19.29
2022-08-20T07:17:29.790Z,19.44
2022-08-20T07:22:33.938Z,19.58
2022-08-20T07:27:38.094Z,19.72
2022-08-20T07:32:45.154Z,19.71
2022-08-20T07:37:46.406Z,19.86
2022-08-20T07:42:50.761Z,20.07
2022-08-20T07:47:54.734Z,20.26
2022-08-20T07:52:58.905Z,20.36
2022-08-20T07:58:03.034Z,20.41
2022-08-20T08:03:07.219Z,20.65
2022-08-20T08:08:11.367Z,20.81
2022-08-20T08:13:15.522Z,20.84
2022-08-20T08:18:20.053Z,20.96
2022-08-20T08:23:24.803Z,20.95
2022-08-20T08:28:27.999Z,21.16
2022-08-20T08:33:32.169Z,21.48
2022-08-20T08:38:36.335Z,21.70
2022-08-20T08:43:40.470Z,21.80
2022-08-20T08:48:44.621Z,21.96
2022-08-20T08:53:48.792Z,22.03
2022-08-20T08:58:53.023Z,22.16
2022-08-20T09:03:57.109Z,21.86
2022-08-20T09:09:01.284Z,21.83
2022-08-20T09:14:05.458Z,21.56
2022-08-20T09:19:09.577Z,21.57
2022-08-20T09:24:13.768Z,21.61
2022-08-20T09:29:17.951Z,21.75
2022-08-20T09:34:22.052Z,21.95
2022-08-20T09:39:26.261Z,22.23
2022-08-20T09:44:30.414Z,22.54
2022-08-20T09:49:34.537Z,22.49
2022-08-20T09:54:38.723Z,22.74
2022-08-20T09:59:42.884Z,22.88
2022-08-20T10:04:47.067Z,22.32
2022-08-20T10:09:51.230Z,21.80
2022-08-20T10:14:55.361Z,21.59
2022-08-20T10:19:57.604Z,21.63
2022-08-20T10:25:01.776Z,21.94
2022-08-20T10:30:05.917Z,22.07
2022-08-20T10:35:10.095Z,22.50
2022-08-20T10:40:14.386Z,22.60
2022-08-20T10:45:18.455Z,22.33
2022-08-20T10:50:20.657Z,22.51
2022-08-20T11:00:28.997Z,22.63
2022-08-20T11:05:33.158Z,22.71
2022-08-20T11:10:37.332Z,22.70
2022-08-20T11:15:41.483Z,22.90
2022-08-20T11:20:45.610Z,23.20
2022-08-20T11:25:49.751Z,23.22
2022-08-20T11:30:53.965Z,23.38
2022-08-20T11:35:58.107Z,23.01
2022-08-20T11:41:02.282Z,22.97
2022-08-20T11:46:06.427Z,23.13
2022-08-20T11:51:10.570Z,23.47
2022-08-20T11:56:14.743Z,23.27
2022-08-20T12:01:18.917Z,23.28
2022-08-20T12:06:23.057Z,23.30
2022-08-20T12:11:27.216Z,23.50
2022-08-20T12:16:31.341Z,23.76
2022-08-20T12:21:35.585Z,23.93
2022-08-20T12:26:39.717Z,24.31
2022-08-20T12:31:43.831Z,24.44
2022-08-20T12:36:48.010Z,24.33
2022-08-20T12:41:52.161Z,24.50
2022-08-20T12:46:56.365Z,24.24
2022-08-20T12:52:00.489Z,24.12
2022-08-20T12:57:08.056Z,24.32
2022-08-20T13:02:15.800Z,24.62
2022-08-20T13:07:12.963Z,24.70
2022-08-20T13:12:17.094Z,24.64
2022-08-20T13:17:37.992Z,24.60
2022-08-20T13:22:25.422Z,24.71
2022-08-20T13:27:29.599Z,24.65
2022-08-20T13:32:33.778Z,24.62
2022-08-20T13:37:37.938Z,24.87
2022-08-20T13:42:42.117Z,25.19
2022-08-20T13:47:46.268Z,25.45
2022-08-20T13:52:50.429Z,25.41
2022-08-20T13:57:54.547Z,25.76
2022-08-20T14:02:58.923Z,25.89
2022-08-20T14:08:02.858Z,26.08
2022-08-20T14:13:07.048Z,26.13
2022-08-20T14:18:11.199Z,25.66
2022-08-20T14:23:15.377Z,25.47
2022-08-20T14:28:19.501Z,25.05
2022-08-20T14:33:23.664Z,25.00
2022-08-20T14:38:27.813Z,25.16
2022-08-20T14:43:31.998Z,25.20
2022-08-20T14:48:36.137Z,25.48
2022-08-20T14:53:40.687Z,25.49
2022-08-20T14:58:44.665Z,25.63
2022-08-20T15:03:48.609Z,25.75
2022-08-20T15:08:52.764Z,25.99
2022-08-20T15:13:56.907Z,25.80
2022-08-20T15:19:01.094Z,25.72
2022-08-20T15:24:05.242Z,25.48
2022-08-20T15:29:09.440Z,25.10
2022-08-20T15:34:17.621Z,25.36
2022-08-20T15:39:17.700Z,25.57
2022-08-20T15:44:21.876Z,25.54
2022-08-20T15:49:26.055Z,25.78
2022-08-20T15:54:30.181Z,26.13
2022-08-20T15:59:34.328Z,27.26
2022-08-20T16:04:38.497Z,27.41
2022-08-20T16:09:42.648Z,26.53
2022-08-20T16:14:46.843Z,25.52
2022-08-20T16:19:49.079Z,26.04
2022-08-20T16:24:53.273Z,27.83
2022-08-20T16:29:57.499Z,27.30
2022-08-20T16:35:01.579Z,28.50
2022-08-20T16:40:05.809Z,28.93
2022-08-20T16:45:09.869Z,28.55
2022-08-20T16:50:14.053Z,28.20
2022-08-20T16:55:18.187Z,28.36
2022-08-20T17:00:22.332Z,27.05
2022-08-20T17:05:26.513Z,26.25
2022-08-20T17:10:30.665Z,25.48
2022-08-20T17:15:34.842Z,25.07
2022-08-20T17:20:39.006Z,24.71
2022-08-20T17:25:43.177Z,24.37
2022-08-20T17:30:47.343Z,24.14
2022-08-20T17:35:51.462Z,23.78
2022-08-20T17:40:55.640Z,23.53
2022-08-20T17:45:59.788Z,23.17
2022-08-20T17:51:03.964Z,22.98
2022-08-20T17:56:08.126Z,22.82
2022-08-20T18:01:13.178Z,22.72
2022-08-20T18:06:16.450Z,22.59
2022-08-20T18:11:20.572Z,22.41
2022-08-20T18:16:24.742Z,22.21
2022-08-20T18:21:28.905Z,22.03
2022-08-20T18:26:33.066Z,21.76
2022-08-20T18:31:37.217Z,21.48
2022-08-20T18:36:41.383Z,21.29
2022-08-20T18:41:45.537Z,21.10
2022-08-20T18:51:53.841Z,20.68
2022-08-20T18:56:58.032Z,20.39
2022-08-20T19:02:02.233Z,20.25
2022-08-20T19:07:06.514Z,20.03
2022-08-20T19:12:10.501Z,19.83
2022-08-20T19:17:14.665Z,19.49
2022-08-20T19:22:18.830Z,19.11
2022-08-20T19:27:23.011Z,18.88
2022-08-20T19:32:27.124Z,18.75
2022-08-20T19:37:39.922Z,18.51
2022-08-20T19:42:35.436Z,18.40
2022-08-20T19:47:39.632Z,18.25
2022-08-20T19:52:43.773Z,18.11
2022-08-20T19:57:47.958Z,18.05
2022-08-20T20:02:52.135Z,17.91
2022-08-20T20:07:56.245Z,17.77
2022-08-20T20:13:00.467Z,17.62
2022-08-20T20:18:04.596Z,17.42
2022-08-20T20:23:08.714Z,17.28
2022-08-20T20:28:12.862Z,17.22
2022-08-20T20:33:17.027Z,17.24
2022-08-20T20:38:21.194Z,17.14
2022-08-20T20:43:25.391Z,17.00
2022-08-20T20:48:33.733Z,16.96
2022-08-20T20:53:51.080Z,16.97
2022-08-20T20:58:37.869Z,16.89
2022-08-20T21:03:41.986Z,16.84
2022-08-20T21:08:46.181Z,16.72
2022-08-20T21:13:50.335Z,16.63
2022-08-20T21:18:54.482Z,16.56
2022-08-20T21:23:58.647Z,16.48
2022-08-20T21:29:04.615Z,16.42
2022-08-20T21:34:06.963Z,16.27
2022-08-20T21:39:11.256Z,16.14
2022-08-20T21:44:15.266Z,16.06
2022-08-20T21:49:17.530Z,16.00
2022-08-20T21:54:21.723Z,15.96
2022-08-20T21:59:25.851Z,15.88
2022-08-20T22:04:34.831Z,15.80
2022-08-20T22:09:34.185Z,15.83
2022-08-20T22:14:38.333Z,15.83
2022-08-20T22:19:42.529Z,15.82
2022-08-20T22:24:46.677Z,15.72
2022-08-20T22:29:50.837Z,15.64
2022-08-20T22:34:55.003Z,15.57
2022-08-20T22:39:59.168Z,15.48
2022-08-20T22:50:07.489Z,15.45
2022-08-20T22:55:11.629Z,15.39
2022-08-20T23:00:15.800Z,15.31
2022-08-20T23:05:19.938Z,15.28
2022-08-20T23:10:24.084Z,15.28
2022-08-20T23:15:28.260Z,15.29
2022-08-20T23:20:32.405Z,15.30
2022-08-20T23:25:36.602Z,15.29
2022-08-20T23:30:40.739Z,15.24
2022-08-20T23:35:44.933Z,15.21
2022-08-20T23:40:49.079Z,15.23
2022-08-20T23:45:53.218Z,15.25
2022-08-20T23:50:57.412Z,15.19
2022-08-20T23:56:01.573Z,15.16
